Airfield :
LOGIN :

Register | Disclaimer

   EN    FR    IT 

 










Legend :    VFR   Marginal VFR   IFR   Intensive IFR   Very Intensive IFR
Visi :
Ceiling :
>= 8 km
>= 3000ft
5 to 8 km
1000 to 3000 ft
1500m to 5 km
500 to 1000 ft
800 to 1500m
200 to 500 ft
< 800m
< 200 ft
Symbols :   Thunderstorms  Fog  Heavy snow  Heavy precipitations  Wind > 20 kt
SIGMETs :     Misc.  Thunderstorms  Icing  Turbulence  Mountain Waves  Volcanic Ashes






- Airport Elevation : 49 ft
- IATA code : GLZ


EHGR - Gilze-Rijen Airbase

CURRENT METAR :
  • 290625Z AUTO 35010KT 300V050 9999 NCD 04/01 Q1028 BLU

EXPIRED METARs :
  • 290555Z AUTO 35009KT 280V030 9999 NCD 04/00 Q1028 BLU
  • 290525Z AUTO 34009KT 290V030 9999 NCD 04/M00 Q1028 BLU
  • 290455Z AUTO 34009KT 290V040 9999 FEW022 04/M00 Q1027 BLU
  • 290435Z AUTO 35009KT 290V080 9999 FEW023 04/M01 Q1027 BLU
  • 290431Z AUTO 35009KT 290V080 9999 SCT023 04/M00 Q1027 WHT
  • 290355Z AUTO 35009KT 290V040 9999 SCT060 BKN069 OVC074 04/00 Q1027 BLU

Expired Forecast.



MET'MAP, your aeronautical weather chart ! - Copyright ORBIFLY December 2007 - Disclaimer

ORBIFLY MET'MAP TEAM :

Programming & Development : Alexandra Zaïnal
Concept & original design : Baudouin d'Aumeries
Assistance for programming : Marc-Olivier Méhu
Technical & hardware support : Manuel Goepfert

Contact : metmap@orbifly.com




SOURCES & CREDITS :

   NOAA